createdAt,value
2023-01-23T00:00:47.367Z,20.65
2023-01-23T00:03:13.784Z,19.58
2023-01-23T00:05:40.106Z,19.45
2023-01-23T00:08:06.468Z,18.30
2023-01-23T00:10:32.906Z,21.52
2023-01-23T00:12:59.333Z,20.02
2023-01-23T00:15:27.346Z,20.02
2023-01-23T00:17:53.828Z,19.98
2023-01-23T00:20:20.535Z,18.65
2023-01-23T00:22:47.013Z,20.92
2023-01-23T00:25:13.499Z,21.90
2023-01-23T00:27:39.883Z,22.88
2023-01-23T00:30:06.740Z,20.30
2023-01-23T00:32:33.224Z,22.27
2023-01-23T00:35:00.494Z,22.50
2023-01-23T00:37:26.821Z,22.40
2023-01-23T00:39:53.293Z,23.88
2023-01-23T00:42:19.617Z,18.10
2023-01-23T00:44:45.924Z,18.80
2023-01-23T00:47:12.926Z,18.95
2023-01-23T00:49:39.234Z,18.83
2023-01-23T00:52:05.580Z,18.23
2023-01-23T00:54:31.954Z,20.60
2023-01-23T00:56:58.356Z,18.17
2023-01-23T00:59:24.737Z,16.83
2023-01-23T01:01:51.164Z,18.30
2023-01-23T01:04:17.576Z,19.75
2023-01-23T01:06:43.950Z,18.45
2023-01-23T01:09:10.280Z,17.50
2023-01-23T01:11:36.638Z,16.55
2023-01-23T01:14:04.050Z,21.35
2023-01-23T01:16:30.699Z,16.02
2023-01-23T01:18:57.068Z,17.10
2023-01-23T01:21:23.422Z,20.00
2023-01-23T01:23:49.983Z,17.02
2023-01-23T01:26:16.374Z,16.65
2023-01-23T01:28:42.741Z,17.33
2023-01-23T01:31:12.977Z,17.90
2023-01-23T01:33:41.008Z,18.00
2023-01-23T01:36:16.751Z,18.08
2023-01-23T01:41:10.543Z,15.30
2023-01-23T01:43:37.014Z,17.45
2023-01-23T01:46:15.831Z,24.38
2023-01-23T01:48:44.204Z,19.25
2023-01-23T01:51:20.715Z,16.40
2023-01-23T01:53:50.797Z,20.30
2023-01-23T01:56:18.955Z,18.25
2023-01-23T01:58:48.889Z,18.65
2023-01-23T02:01:15.916Z,16.75
2023-01-23T02:03:44.925Z,15.70
2023-01-23T02:06:11.769Z,16.63
2023-01-23T02:08:52.745Z,18.88
2023-01-23T02:11:19.596Z,18.15
2023-01-23T02:13:46.130Z,14.90
2023-01-23T02:16:17.801Z,18.45
2023-01-23T02:18:48.016Z,16.10
2023-01-23T02:21:17.002Z,15.35
2023-01-23T02:24:05.144Z,15.60
2023-01-23T02:26:36.660Z,15.90
2023-01-23T02:29:04.993Z,16.63
2023-01-23T02:31:31.626Z,18.30
2023-01-23T02:33:59.485Z,16.17
2023-01-23T02:36:28.891Z,15.63
2023-01-23T02:39:01.446Z,14.48
2023-01-23T02:41:30.979Z,18.33
2023-01-23T02:44:00.785Z,18.77
2023-01-23T02:46:27.309Z,15.32
2023-01-23T02:48:54.099Z,18.83
2023-01-23T02:51:22.162Z,14.85
2023-01-23T02:53:48.965Z,15.50
2023-01-23T02:56:16.219Z,16.42
2023-01-23T02:59:01.611Z,19.50
2023-01-23T03:01:28.126Z,18.50
2023-01-23T03:03:58.044Z,23.30
2023-01-23T03:06:24.503Z,17.13
2023-01-23T03:08:50.928Z,17.80
2023-01-23T03:11:18.808Z,18.27
2023-01-23T03:13:46.353Z,19.17
2023-01-23T03:16:13.036Z,19.00
2023-01-23T03:18:52.922Z,20.25
2023-01-23T03:21:21.130Z,19.65
2023-01-23T03:23:48.328Z,18.88
2023-01-23T03:26:15.422Z,21.75
2023-01-23T03:29:00.299Z,22.85
2023-01-23T03:31:26.647Z,15.88
2023-01-23T03:33:53.459Z,17.38
2023-01-23T03:36:20.981Z,17.00
2023-01-23T03:39:06.001Z,17.85
2023-01-23T03:41:32.386Z,18.23
2023-01-23T03:43:58.743Z,18.35
2023-01-23T03:46:25.177Z,16.58
2023-01-23T03:48:51.734Z,17.33
2023-01-23T03:51:18.113Z,17.15
2023-01-23T03:53:44.489Z,18.08
2023-01-23T03:56:10.916Z,21.98
2023-01-23T03:58:37.270Z,21.38
2023-01-23T04:01:08.518Z,20.70
2023-01-23T04:03:35.757Z,18.15
2023-01-23T04:06:02.292Z,19.70
2023-01-23T04:08:29.456Z,18.42
2023-01-23T04:11:04.060Z,18.83
2023-01-23T04:13:30.794Z,21.42
2023-01-23T04:15:57.255Z,17.75
2023-01-23T04:18:24.104Z,18.02
2023-01-23T04:20:50.525Z,19.00
2023-01-23T04:23:17.666Z,15.30
2023-01-23T04:25:44.339Z,17.70
2023-01-23T04:28:10.715Z,18.45
2023-01-23T04:30:37.219Z,17.63
2023-01-23T04:33:03.740Z,14.30
2023-01-23T04:35:30.409Z,18.33
2023-01-23T04:37:56.886Z,19.67
2023-01-23T04:40:23.338Z,18.40
2023-01-23T04:42:49.751Z,20.10
2023-01-23T04:45:16.393Z,15.00
2023-01-23T04:47:42.825Z,15.70
2023-01-23T04:50:09.800Z,14.63
2023-01-23T04:52:36.239Z,15.63
2023-01-23T04:55:02.643Z,15.55
2023-01-23T04:57:29.194Z,17.40
2023-01-23T04:59:55.629Z,14.25
2023-01-23T05:02:22.096Z,14.70
2023-01-23T05:04:48.596Z,15.98
2023-01-23T05:07:15.347Z,15.80
2023-01-23T05:09:42.102Z,15.30
2023-01-23T05:12:08.515Z,18.02
2023-01-23T05:14:34.978Z,16.05
2023-01-23T05:17:01.382Z,17.88
2023-01-23T05:19:27.817Z,17.17
2023-01-23T05:21:54.237Z,16.50
2023-01-23T05:24:20.669Z,17.92
2023-01-23T05:26:47.091Z,17.75
2023-01-23T05:29:13.542Z,15.88
2023-01-23T05:31:40.160Z,19.67
2023-01-23T05:34:06.572Z,18.90
2023-01-23T05:36:32.963Z,19.08
2023-01-23T05:38:59.399Z,18.42
2023-01-23T05:41:25.845Z,20.02
2023-01-23T05:43:52.271Z,19.25
2023-01-23T05:46:18.765Z,21.75
2023-01-23T05:48:49.218Z,20.45
2023-01-23T05:51:15.731Z,19.52
2023-01-23T05:53:42.210Z,22.65
2023-01-23T05:56:09.032Z,17.83
2023-01-23T05:58:35.353Z,19.55
2023-01-23T06:01:03.510Z,19.13
2023-01-23T06:03:30.005Z,23.48
2023-01-23T06:05:56.399Z,22.15
2023-01-23T06:08:23.011Z,19.95
2023-01-23T06:10:49.409Z,25.50
2023-01-23T06:13:15.910Z,21.95
2023-01-23T06:15:42.385Z,20.65
2023-01-23T06:18:09.173Z,20.05
2023-01-23T06:20:35.706Z,19.73
2023-01-23T06:23:02.177Z,20.30
2023-01-23T06:25:28.591Z,21.15
2023-01-23T06:27:55.161Z,18.40
2023-01-23T06:30:21.990Z,21.13
2023-01-23T06:32:48.618Z,21.05
2023-01-23T06:35:15.068Z,21.73
2023-01-23T06:37:41.807Z,21.85
2023-01-23T06:40:13.067Z,25.15
2023-01-23T06:42:40.708Z,22.50
2023-01-23T06:45:08.771Z,24.63
2023-01-23T06:47:35.817Z,23.77
2023-01-23T06:50:02.507Z,25.27
2023-01-23T06:52:29.727Z,23.35
2023-01-23T06:54:56.166Z,23.55
2023-01-23T06:57:23.025Z,22.98
2023-01-23T06:59:49.627Z,25.42
2023-01-23T07:02:16.401Z,22.70
2023-01-23T07:04:42.839Z,25.13
2023-01-23T07:07:09.178Z,24.58
2023-01-23T07:09:35.683Z,29.05
2023-01-23T07:12:02.018Z,28.35
2023-01-23T07:14:28.653Z,27.73
2023-01-23T07:16:55.547Z,25.42
2023-01-23T07:19:23.120Z,26.33
2023-01-23T07:21:49.533Z,25.70
2023-01-23T07:24:15.927Z,26.13
2023-01-23T07:26:42.317Z,27.90
2023-01-23T07:29:11.621Z,24.30
2023-01-23T07:31:38.172Z,24.23
2023-01-23T07:34:04.531Z,26.33
2023-01-23T07:36:31.137Z,26.35
2023-01-23T07:38:58.908Z,23.35
2023-01-23T07:41:25.666Z,27.77
2023-01-23T07:43:52.099Z,24.98
2023-01-23T07:46:18.592Z,26.33
2023-01-23T07:48:44.976Z,27.20
2023-01-23T07:51:12.088Z,23.90
2023-01-23T07:53:38.483Z,24.75
2023-01-23T07:56:06.159Z,24.08
2023-01-23T07:58:33.021Z,26.40
2023-01-23T08:01:00.012Z,24.52
2023-01-23T08:03:28.929Z,24.45
2023-01-23T08:05:55.542Z,23.30
2023-01-23T08:08:21.990Z,25.42
2023-01-23T08:10:48.333Z,30.90
2023-01-23T08:13:14.778Z,23.13
2023-01-23T08:15:41.185Z,24.00
2023-01-23T08:18:07.773Z,23.27
2023-01-23T08:20:34.292Z,23.55
2023-01-23T08:23:02.197Z,25.65
2023-01-23T08:25:28.865Z,25.08
2023-01-23T08:27:55.284Z,26.30
2023-01-23T08:30:22.168Z,27.70
2023-01-23T08:32:48.879Z,28.50
2023-01-23T08:35:15.592Z,26.50
2023-01-23T08:37:42.240Z,26.58
2023-01-23T08:40:09.607Z,22.42
2023-01-23T08:42:35.974Z,23.33
2023-01-23T08:45:02.302Z,22.80
2023-01-23T08:47:28.732Z,21.65
2023-01-23T08:49:55.079Z,22.10
2023-01-23T08:52:21.392Z,22.48
2023-01-23T08:54:47.939Z,20.63
2023-01-23T08:57:14.244Z,20.60
2023-01-23T08:59:42.473Z,20.20
2023-01-23T09:02:11.864Z,23.30
2023-01-23T09:04:38.310Z,20.48
2023-01-23T09:07:04.703Z,21.83
2023-01-23T09:09:31.156Z,21.38
2023-01-23T09:11:57.489Z,19.25
2023-01-23T09:14:23.967Z,20.88
2023-01-23T09:16:52.270Z,21.40
2023-01-23T09:19:18.736Z,19.48
2023-01-23T09:21:45.155Z,19.35
2023-01-23T09:24:11.638Z,21.73
2023-01-23T09:26:38.138Z,22.70
2023-01-23T09:29:04.549Z,22.95
2023-01-23T09:31:31.107Z,23.75
2023-01-23T09:33:57.752Z,24.83
2023-01-23T09:36:41.241Z,21.52
2023-01-23T09:39:08.719Z,20.75
2023-01-23T09:41:35.244Z,19.63
2023-01-23T09:44:36.919Z,23.45
2023-01-23T09:47:27.129Z,21.85
2023-01-23T09:50:00.524Z,20.35
2023-01-23T09:52:36.020Z,21.15
2023-01-23T09:55:02.519Z,24.95
2023-01-23T09:57:36.562Z,22.80
2023-01-23T10:00:30.066Z,21.95
2023-01-23T10:02:57.012Z,23.48
2023-01-23T10:05:40.339Z,24.58
2023-01-23T10:08:34.422Z,22.50
2023-01-23T10:11:16.082Z,23.20
2023-01-23T10:13:45.523Z,19.98
2023-01-23T10:16:15.114Z,22.05
2023-01-23T10:19:16.569Z,24.27
2023-01-23T10:21:51.764Z,21.02
2023-01-23T10:24:40.554Z,21.92
2023-01-23T10:27:38.857Z,23.50
2023-01-23T10:30:18.742Z,20.42
2023-01-23T10:32:56.220Z,24.58
2023-01-23T10:35:32.179Z,25.27
2023-01-23T10:38:13.950Z,20.92
2023-01-23T10:40:59.848Z,22.70
2023-01-23T10:43:27.207Z,23.77
2023-01-23T10:45:53.664Z,21.67
2023-01-23T10:48:32.281Z,21.50
2023-01-23T10:51:00.000Z,23.02
2023-01-23T10:53:26.575Z,23.85
2023-01-23T10:55:57.176Z,23.67
2023-01-23T10:58:33.053Z,23.33
2023-01-23T11:01:01.023Z,24.10
2023-01-23T11:03:35.672Z,24.45
2023-01-23T11:06:04.047Z,21.10
2023-01-23T11:08:38.876Z,25.45
2023-01-23T11:11:26.373Z,24.97
2023-01-23T11:14:25.254Z,24.02
2023-01-23T11:17:03.290Z,23.02
2023-01-23T11:19:32.196Z,21.60
2023-01-23T11:22:04.343Z,24.15
2023-01-23T11:24:41.020Z,21.23
2023-01-23T11:27:44.942Z,24.58
2023-01-23T11:30:29.823Z,26.52
2023-01-23T11:33:05.808Z,24.17
2023-01-23T11:35:50.745Z,28.42
2023-01-23T11:38:30.475Z,20.70
2023-01-23T11:40:57.380Z,19.85
2023-01-23T11:43:23.877Z,23.98
2023-01-23T11:45:50.201Z,26.50
2023-01-23T11:48:42.623Z,26.25
2023-01-23T11:51:18.995Z,24.80
2023-01-23T11:54:00.811Z,25.73
2023-01-23T11:56:43.814Z,28.15
2023-01-23T11:59:30.533Z,24.25
2023-01-23T12:02:21.607Z,24.73
2023-01-23T12:05:25.974Z,24.08
2023-01-23T12:08:22.103Z,23.27
2023-01-23T12:10:59.620Z,24.73
2023-01-23T12:13:44.408Z,22.73
2023-01-23T12:16:30.750Z,28.42
2023-01-23T12:19:24.814Z,28.30
2023-01-23T12:22:15.078Z,26.20
2023-01-23T12:24:51.221Z,26.95
2023-01-23T12:27:44.143Z,24.27
2023-01-23T12:30:34.172Z,28.65
2023-01-23T12:33:17.809Z,26.58
2023-01-23T12:35:56.731Z,29.48
2023-01-23T12:38:49.412Z,25.73
2023-01-23T12:41:36.285Z,29.95
2023-01-23T12:44:21.105Z,26.48
2023-01-23T12:46:53.858Z,26.55
2023-01-23T12:49:26.794Z,29.15
2023-01-23T12:52:00.868Z,28.33
2023-01-23T12:54:42.360Z,24.55
2023-01-23T12:57:10.913Z,29.95
2023-01-23T12:59:47.592Z,27.85
2023-01-23T13:02:34.274Z,26.65
2023-01-23T13:05:16.092Z,25.38
2023-01-23T13:07:50.476Z,29.58
2023-01-23T13:10:24.139Z,31.00
2023-01-23T13:12:55.925Z,28.17
2023-01-23T13:15:39.645Z,28.33
2023-01-23T13:18:22.256Z,24.80
2023-01-23T13:21:18.405Z,29.42
2023-01-23T13:23:44.865Z,29.50
2023-01-23T13:26:19.355Z,28.75
2023-01-23T13:28:51.442Z,32.67
2023-01-23T13:31:34.419Z,28.90
2023-01-23T13:34:14.903Z,28.15
2023-01-23T13:36:53.062Z,25.85
2023-01-23T13:39:23.532Z,27.92
2023-01-23T13:41:52.252Z,30.55
2023-01-23T13:44:41.626Z,28.15
2023-01-23T14:22:43.733Z,36.13
2023-01-23T14:25:17.368Z,29.50
2023-01-23T14:27:53.300Z,30.23
2023-01-23T14:30:26.686Z,30.35
2023-01-23T14:32:53.645Z,28.90
2023-01-23T14:35:33.097Z,33.00
2023-01-23T14:38:04.606Z,29.17
2023-01-23T14:40:43.112Z,30.50
2023-01-23T14:43:22.521Z,28.70
2023-01-23T14:45:57.052Z,30.55
2023-01-23T14:48:23.603Z,29.33
2023-01-23T14:50:50.244Z,26.30
2023-01-23T14:53:17.198Z,29.80
2023-01-23T14:55:49.610Z,32.75
2023-01-23T14:58:23.684Z,31.25
2023-01-23T15:00:52.137Z,33.70
2023-01-23T15:03:35.781Z,30.75
2023-01-23T15:06:05.726Z,33.13
2023-01-23T15:08:33.609Z,32.28
2023-01-23T15:11:01.734Z,34.53
2023-01-23T15:13:36.404Z,31.45
2023-01-23T15:16:06.499Z,32.97
2023-01-23T15:18:34.935Z,35.65
2023-01-23T15:21:03.682Z,33.13
2023-01-23T15:23:37.131Z,34.90
2023-01-23T15:26:24.486Z,36.08
2023-01-23T15:28:50.781Z,34.38
2023-01-23T15:31:31.251Z,33.35
2023-01-23T15:34:13.937Z,33.60
2023-01-23T15:36:59.047Z,37.15
2023-01-23T15:39:51.754Z,38.20
2023-01-23T15:42:18.042Z,38.08
2023-01-23T15:44:44.857Z,39.33
2023-01-23T15:47:11.472Z,37.95
2023-01-23T15:49:40.047Z,39.38
2023-01-23T15:52:20.385Z,36.50
2023-01-23T15:54:47.840Z,37.25
2023-01-23T15:57:14.632Z,39.42
2023-01-23T15:59:41.557Z,37.47
2023-01-23T16:02:29.085Z,37.33
2023-01-23T16:04:56.338Z,42.35
2023-01-23T16:07:31.312Z,39.08
2023-01-23T16:09:57.955Z,38.15
2023-01-23T16:12:28.800Z,42.38
2023-01-23T16:14:56.587Z,38.47
2023-01-23T16:17:23.382Z,43.67
2023-01-23T16:19:50.581Z,37.33
2023-01-23T16:22:26.701Z,42.92
2023-01-23T16:24:53.652Z,37.67
2023-01-23T16:27:27.057Z,38.85
2023-01-23T16:29:54.617Z,43.15
2023-01-23T16:32:21.116Z,40.92
2023-01-23T16:34:47.569Z,42.65
2023-01-23T16:37:16.523Z,40.55
2023-01-23T16:39:44.633Z,39.08
2023-01-23T16:42:18.570Z,42.42
2023-01-23T16:44:44.893Z,43.47
2023-01-23T16:47:11.232Z,39.97
2023-01-23T16:49:51.540Z,40.97
2023-01-23T16:52:20.565Z,39.63
2023-01-23T16:54:47.155Z,44.70
2023-01-23T16:57:20.062Z,42.63
2023-01-23T16:59:48.084Z,39.85
2023-01-23T17:02:22.097Z,41.88
2023-01-23T17:04:48.780Z,39.53
2023-01-23T17:07:17.177Z,39.92
2023-01-23T17:09:44.793Z,40.85
2023-01-23T17:12:28.207Z,44.47
2023-01-23T17:14:55.572Z,41.92
2023-01-23T17:17:49.253Z,41.40
2023-01-23T17:20:15.584Z,42.15
2023-01-23T17:22:42.739Z,40.00
2023-01-23T17:25:20.677Z,39.20
2023-01-23T17:28:00.015Z,42.17
2023-01-23T17:30:33.976Z,41.47
2023-01-23T17:33:00.387Z,41.33
2023-01-23T17:35:36.223Z,41.70
2023-01-23T17:38:03.670Z,42.97
2023-01-23T17:40:30.264Z,38.03
2023-01-23T17:42:56.987Z,35.55
2023-01-23T17:45:26.085Z,38.42
2023-01-23T17:47:55.077Z,37.38
2023-01-23T17:50:24.274Z,35.47
2023-01-23T17:52:52.079Z,36.40
2023-01-23T17:55:21.934Z,36.63
2023-01-23T17:57:49.449Z,33.25
2023-01-23T18:00:20.977Z,40.28
2023-01-23T18:03:01.292Z,35.55
2023-01-23T18:05:28.010Z,39.80
2023-01-23T18:07:54.640Z,37.80
2023-01-23T18:10:21.968Z,35.92
2023-01-23T18:13:16.436Z,42.50
2023-01-23T18:16:04.026Z,34.05
2023-01-23T18:18:35.570Z,39.90
2023-01-23T18:21:04.375Z,38.55
2023-01-23T18:23:32.574Z,38.10
2023-01-23T18:26:23.015Z,36.72
2023-01-23T18:29:06.114Z,36.63
2023-01-23T18:32:01.336Z,38.70
2023-01-23T18:34:41.740Z,41.85
2023-01-23T18:37:26.481Z,39.47
2023-01-23T18:40:29.198Z,36.47
2023-01-23T18:43:33.429Z,34.95
2023-01-23T18:45:59.971Z,35.13
2023-01-23T18:48:26.826Z,38.72
2023-01-23T18:51:03.176Z,38.85
2023-01-23T18:53:41.787Z,37.88
2023-01-23T18:56:34.381Z,36.10
2023-01-23T18:59:11.509Z,37.55
2023-01-23T19:01:52.223Z,39.97
2023-01-23T19:04:21.543Z,40.25
2023-01-23T19:06:48.245Z,37.45
2023-01-23T19:09:20.589Z,39.40
2023-01-23T19:12:02.315Z,38.25
2023-01-23T19:14:59.893Z,35.53
2023-01-23T19:17:41.258Z,37.85
2023-01-23T19:20:19.741Z,35.25
2023-01-23T19:22:52.589Z,34.83
2023-01-23T19:25:19.515Z,36.00
2023-01-23T19:27:52.583Z,39.75
2023-01-23T19:30:22.147Z,34.60
2023-01-23T19:32:49.508Z,35.78
2023-01-23T19:35:16.640Z,36.28
2023-01-23T19:37:45.042Z,37.22
2023-01-23T19:40:13.511Z,37.53
2023-01-23T19:42:52.346Z,36.00
2023-01-23T19:45:25.222Z,39.00
2023-01-23T19:47:53.306Z,38.30
2023-01-23T19:50:21.280Z,37.58
2023-01-23T19:52:48.895Z,37.15
2023-01-23T19:55:30.422Z,35.85
2023-01-23T19:57:56.945Z,34.72
2023-01-23T20:00:29.595Z,36.00
2023-01-23T20:02:56.367Z,34.20
2023-01-23T20:05:23.932Z,37.83
2023-01-23T20:07:50.698Z,35.58
2023-01-23T20:10:17.518Z,36.47
2023-01-23T20:12:52.364Z,34.65
2023-01-23T20:15:21.866Z,35.90
2023-01-23T20:17:48.594Z,37.47
2023-01-23T20:20:15.615Z,34.80
2023-01-23T20:22:43.397Z,38.70
2023-01-23T20:25:14.860Z,34.85
2023-01-23T20:27:41.907Z,37.33
2023-01-23T20:30:13.390Z,33.53
2023-01-23T20:32:40.092Z,36.40
2023-01-23T20:35:06.740Z,37.10
2023-01-23T20:37:33.171Z,36.58
2023-01-23T20:39:59.613Z,33.88
2023-01-23T20:42:26.008Z,34.25
2023-01-23T20:44:52.362Z,37.65
2023-01-23T20:47:18.839Z,37.22
2023-01-23T20:49:45.194Z,34.28
2023-01-23T20:52:29.785Z,34.50
2023-01-23T20:54:56.111Z,32.15
2023-01-23T20:57:22.464Z,35.15
2023-01-23T20:59:48.867Z,33.35
2023-01-23T21:02:24.276Z,36.60
2023-01-23T21:04:51.821Z,33.83
2023-01-23T21:07:21.180Z,33.45
2023-01-23T21:09:47.963Z,33.88
2023-01-23T21:12:14.654Z,35.53
2023-01-23T21:14:41.082Z,34.58
2023-01-23T21:17:08.861Z,33.40
2023-01-23T21:19:37.423Z,31.75
2023-01-23T21:22:05.922Z,34.92
2023-01-23T21:24:34.337Z,30.67
2023-01-23T21:27:02.538Z,34.25
2023-01-23T21:29:29.783Z,35.67
2023-01-23T21:31:57.605Z,35.85
2023-01-23T21:34:25.401Z,36.13
2023-01-23T21:36:52.084Z,32.78
2023-01-23T21:39:19.155Z,35.28
2023-01-23T21:41:45.672Z,34.97
2023-01-23T21:44:12.300Z,30.63
2023-01-23T21:46:39.050Z,35.47
2023-01-23T21:49:05.436Z,34.67
2023-01-23T21:51:32.424Z,36.55
2023-01-23T21:53:58.893Z,32.13
2023-01-23T21:56:25.567Z,31.75
2023-01-23T21:58:52.803Z,36.03
2023-01-23T22:01:41.050Z,32.45
2023-01-23T22:04:20.609Z,32.95
2023-01-23T22:06:47.048Z,32.30
2023-01-23T22:09:18.220Z,33.55
2023-01-23T22:11:45.492Z,33.47
2023-01-23T22:14:11.839Z,33.47
2023-01-23T22:16:53.826Z,32.08
2023-01-23T22:19:25.041Z,32.10
2023-01-23T22:21:55.175Z,31.13
2023-01-23T22:24:21.893Z,35.78
2023-01-23T22:26:48.453Z,31.05
2023-01-23T22:29:15.209Z,36.38
2023-01-23T22:31:41.732Z,32.20
2023-01-23T22:34:08.231Z,30.17
2023-01-23T22:36:34.737Z,34.20
2023-01-23T22:39:01.115Z,31.83
2023-01-23T22:41:28.507Z,32.03
2023-01-23T22:43:56.551Z,31.23
2023-01-23T22:46:23.655Z,32.72
2023-01-23T22:48:50.645Z,29.65
2023-01-23T22:51:24.522Z,27.92
2023-01-23T22:53:52.598Z,30.08
2023-01-23T22:56:19.511Z,28.95
2023-01-23T22:58:50.704Z,32.15
2023-01-23T23:01:17.939Z,31.42
2023-01-23T23:03:45.414Z,31.92
2023-01-23T23:06:13.986Z,32.00
2023-01-23T23:08:40.655Z,33.65
2023-01-23T23:11:18.545Z,32.35
2023-01-23T23:13:45.654Z,26.73
2023-01-23T23:16:18.326Z,31.25
2023-01-23T23:18:46.874Z,30.60
2023-01-23T23:21:15.972Z,29.85
2023-01-23T23:23:42.649Z,29.10
2023-01-23T23:26:10.348Z,32.72
2023-01-23T23:28:37.518Z,31.70
2023-01-23T23:31:04.587Z,28.48
2023-01-23T23:33:31.285Z,29.45
2023-01-23T23:35:58.025Z,32.60
2023-01-23T23:38:24.570Z,30.48
2023-01-23T23:40:57.980Z,28.23
2023-01-23T23:43:24.801Z,29.25
2023-01-23T23:45:52.410Z,28.58
2023-01-23T23:48:19.825Z,27.27
2023-01-23T23:50:47.423Z,30.67
2023-01-23T23:53:14.050Z,28.05
2023-01-23T23:55:40.370Z,27.25
2023-01-23T23:58:06.888Z,28.33
